map of STI home
STI - Airport
Location
City:  Santiago de los Caballeros, Santiago, Dominican Republic
Name:Cibao International Airport
ICAO:MDST
IATA:STI

Details
Type:Airport (Aerodrome, Airfield)
Use:Public/Civil, International (customs port of entry)
Latitude:1924'22"N (19.406092)
Longitude:7036'17"W (-70.604688)
Datum:WGS 1984
Elevation:565 ft (172 m)
Variation:11.22W (WMM2015v2 magnetic declination)
-0.06 annual change
Runways:1
Longest:8595 × 148 ft (2620 × 45 m), paved

Time
Time Zone:UTC-4
Local Time:

Weather
METAR:MDST 041400Z 10007KT 9999 FEW018 24/18 Q1016 NOSIG

Related Locations
Nearby:
Farthest:EXM: 12089 mi / 19455 km
Exmouth Gulf, WA, AU

Find:

   beyond  
but within

Other Information
Maps:
NOTAMs:
Links:
Sources:

  
  • flag of Dominican Republic
  

Sectional Chart

Flight Planning
at skyvector.com

Satellite Image

Google Maps Satellite view

 

Copyright © 2004-2019 Karl L. Swartz. All rights reserved.
The Great Circle Mapper name and logo are trademarks of the Great Circle Mapper.
All other trademarks mentioned herein belong to their respective owners.
Please see credits for attibutions and further copyright information.

  Follow gcmap on Facebook Follow gcmap on Twitter GCmap on LinkedIn

hCard Microformat

Geo Microformat